sensor_id;sensor_type;location;lat;lon;timestamp;pressure;altitude;pressure_sealevel;temperature;humidity
68889;BME280;55930;47.412;8.790;2022-12-31T00:03:07;94834.56;;;8.46;100.00
68889;BME280;55930;47.412;8.790;2022-12-31T00:06:31;94825.88;;;8.54;100.00
68889;BME280;55930;47.412;8.790;2022-12-31T00:09:52;94829.72;;;8.53;100.00
68889;BME280;55930;47.412;8.790;2022-12-31T00:13:16;94834.28;;;8.53;100.00
68889;BME280;55930;47.412;8.790;2022-12-31T00:16:38;94830.88;;;8.43;100.00
68889;BME280;55930;47.412;8.790;2022-12-31T00:19:59;94828.56;;;8.63;100.00
68889;BME280;55930;47.412;8.790;2022-12-31T00:23:19;94828.13;;;8.65;100.00
68889;BME280;55930;47.412;8.790;2022-12-31T00:26:40;94820.63;;;8.63;100.00
68889;BME280;55930;47.412;8.790;2022-12-31T00:30:00;94818.25;;;8.47;100.00
68889;BME280;55930;47.412;8.790;2022-12-31T00:33:21;94815.31;;;8.45;100.00
68889;BME280;55930;47.412;8.790;2022-12-31T00:36:51;94817.09;;;8.57;100.00
68889;BME280;55930;47.412;8.790;2022-12-31T00:40:11;94814.00;;;8.59;100.00
68889;BME280;55930;47.412;8.790;2022-12-31T00:43:33;94809.00;;;8.52;100.00
68889;BME280;55930;47.412;8.790;2022-12-31T00:46:54;94819.00;;;8.66;100.00
68889;BME280;55930;47.412;8.790;2022-12-31T00:50:14;94815.34;;;8.63;100.00
68889;BME280;55930;47.412;8.790;2022-12-31T00:53:40;94805.50;;;8.64;100.00
68889;BME280;55930;47.412;8.790;2022-12-31T00:57:06;94811.81;;;8.66;100.00
68889;BME280;55930;47.412;8.790;2022-12-31T01:00:29;94821.09;;;8.62;100.00
68889;BME280;55930;47.412;8.790;2022-12-31T01:03:52;94823.00;;;8.61;100.00
68889;BME280;55930;47.412;8.790;2022-12-31T01:07:13;94832.34;;;8.44;100.00
68889;BME280;55930;47.412;8.790;2022-12-31T01:10:39;94831.19;;;8.45;100.00
68889;BME280;55930;47.412;8.790;2022-12-31T01:14:18;94839.84;;;8.46;100.00
68889;BME280;55930;47.412;8.790;2022-12-31T01:17:39;94829.97;;;8.46;100.00
68889;BME280;55930;47.412;8.790;2022-12-31T01:21:01;94834.13;;;8.56;100.00
68889;BME280;55930;47.412;8.790;2022-12-31T01:24:22;94838.66;;;8.37;100.00
68889;BME280;55930;47.412;8.790;2022-12-31T01:27:46;94844.97;;;8.40;100.00
68889;BME280;55930;47.412;8.790;2022-12-31T01:31:11;94833.66;;;8.39;100.00
68889;BME280;55930;47.412;8.790;2022-12-31T01:34:32;94844.84;;;8.53;100.00
68889;BME280;55930;47.412;8.790;2022-12-31T01:37:53;94844.56;;;8.51;100.00
68889;BME280;55930;47.412;8.790;2022-12-31T01:41:15;94832.09;;;8.60;100.00
68889;BME280;55930;47.412;8.790;2022-12-31T01:48:02;94839.00;;;8.67;100.00
68889;BME280;55930;47.412;8.790;2022-12-31T01:51:25;94835.47;;;8.79;100.00
68889;BME280;55930;47.412;8.790;2022-12-31T01:54:53;94834.47;;;8.95;100.00
68889;BME280;55930;47.412;8.790;2022-12-31T01:58:21;94839.50;;;9.02;100.00
68889;BME280;55930;47.412;8.790;2022-12-31T02:01:42;94831.81;;;9.04;100.00
68889;BME280;55930;47.412;8.790;2022-12-31T02:05:30;94829.47;;;9.15;100.00
68889;BME280;55930;47.412;8.790;2022-12-31T02:08:50;94826.25;;;9.02;100.00
68889;BME280;55930;47.412;8.790;2022-12-31T02:12:10;94839.31;;;8.87;100.00
68889;BME280;55930;47.412;8.790;2022-12-31T02:19:28;94831.38;;;9.05;100.00
68889;BME280;55930;47.412;8.790;2022-12-31T02:27:01;94838.28;;;8.85;100.00
68889;BME280;55930;47.412;8.790;2022-12-31T02:30:28;94843.00;;;8.90;100.00
68889;BME280;55930;47.412;8.790;2022-12-31T02:34:07;94835.34;;;8.82;100.00
68889;BME280;55930;47.412;8.790;2022-12-31T02:37:31;94836.06;;;8.74;100.00
68889;BME280;55930;47.412;8.790;2022-12-31T02:40:53;94842.53;;;8.82;100.00
68889;BME280;55930;47.412;8.790;2022-12-31T02:44:31;94846.06;;;8.79;100.00
68889;BME280;55930;47.412;8.790;2022-12-31T02:48:14;94856.63;;;8.79;100.00
68889;BME280;55930;47.412;8.790;2022-12-31T02:55:15;94865.56;;;8.63;100.00
68889;BME280;55930;47.412;8.790;2022-12-31T03:02:32;94867.19;;;8.52;100.00
68889;BME280;55930;47.412;8.790;2022-12-31T03:05:54;94874.97;;;8.55;100.00
68889;BME280;55930;47.412;8.790;2022-12-31T03:09:16;94875.38;;;8.44;100.00
68889;BME280;55930;47.412;8.790;2022-12-31T03:12:36;94867.47;;;8.63;100.00
68889;BME280;55930;47.412;8.790;2022-12-31T03:16:09;94871.91;;;8.66;100.00
68889;BME280;55930;47.412;8.790;2022-12-31T03:19:29;94871.34;;;8.80;100.00
68889;BME280;55930;47.412;8.790;2022-12-31T03:23:14;94876.59;;;8.71;100.00
68889;BME280;55930;47.412;8.790;2022-12-31T03:26:35;94879.97;;;8.62;100.00
68889;BME280;55930;47.412;8.790;2022-12-31T03:29:56;94882.75;;;8.59;100.00
68889;BME280;55930;47.412;8.790;2022-12-31T03:33:16;94891.63;;;8.74;100.00
68889;BME280;55930;47.412;8.790;2022-12-31T03:36:37;94893.22;;;8.71;100.00
68889;BME280;55930;47.412;8.790;2022-12-31T03:40:16;94885.25;;;8.62;100.00
68889;BME280;55930;47.412;8.790;2022-12-31T03:43:37;94907.88;;;8.63;100.00
68889;BME280;55930;47.412;8.790;2022-12-31T03:46:58;94909.59;;;8.48;100.00
68889;BME280;55930;47.412;8.790;2022-12-31T03:50:18;94910.50;;;8.45;100.00
68889;BME280;55930;47.412;8.790;2022-12-31T03:53:39;94919.25;;;8.33;100.00
68889;BME280;55930;47.412;8.790;2022-12-31T03:56:59;94909.94;;;8.28;100.00
68889;BME280;55930;47.412;8.790;2022-12-31T04:00:21;94918.16;;;8.21;100.00
68889;BME280;55930;47.412;8.790;2022-12-31T04:03:41;94912.72;;;8.25;100.00
68889;BME280;55930;47.412;8.790;2022-12-31T04:07:02;94913.59;;;8.22;100.00
68889;BME280;55930;47.412;8.790;2022-12-31T04:10:22;94921.16;;;8.11;100.00
68889;BME280;55930;47.412;8.790;2022-12-31T04:13:42;94924.25;;;8.09;100.00
68889;BME280;55930;47.412;8.790;2022-12-31T04:17:03;94926.28;;;8.05;100.00
68889;BME280;55930;47.412;8.790;2022-12-31T04:20:23;94927.03;;;8.05;100.00
68889;BME280;55930;47.412;8.790;2022-12-31T04:23:44;94933.47;;;8.04;100.00
68889;BME280;55930;47.412;8.790;2022-12-31T04:27:04;94927.81;;;7.93;100.00
68889;BME280;55930;47.412;8.790;2022-12-31T04:30:25;94926.41;;;8.01;100.00
68889;BME280;55930;47.412;8.790;2022-12-31T04:33:45;94935.16;;;7.89;100.00
68889;BME280;55930;47.412;8.790;2022-12-31T04:37:05;94923.59;;;7.96;100.00
68889;BME280;55930;47.412;8.790;2022-12-31T04:40:28;94930.53;;;8.02;100.00
68889;BME280;55930;47.412;8.790;2022-12-31T04:43:53;94919.00;;;7.87;100.00
68889;BME280;55930;47.412;8.790;2022-12-31T04:47:14;94923.53;;;7.87;100.00
68889;BME280;55930;47.412;8.790;2022-12-31T04:50:34;94933.09;;;7.93;100.00
68889;BME280;55930;47.412;8.790;2022-12-31T04:53:57;94924.06;;;8.03;100.00
68889;BME280;55930;47.412;8.790;2022-12-31T04:57:18;94924.88;;;7.91;100.00
68889;BME280;55930;47.412;8.790;2022-12-31T05:00:38;94932.69;;;7.95;100.00
68889;BME280;55930;47.412;8.790;2022-12-31T05:04:01;94950.50;;;8.03;100.00
68889;BME280;55930;47.412;8.790;2022-12-31T05:07:21;94944.31;;;8.06;100.00
68889;BME280;55930;47.412;8.790;2022-12-31T05:10:43;94944.22;;;8.10;100.00
68889;BME280;55930;47.412;8.790;2022-12-31T05:14:04;94935.38;;;8.04;100.00
68889;BME280;55930;47.412;8.790;2022-12-31T05:17:25;94924.44;;;7.93;100.00
68889;BME280;55930;47.412;8.790;2022-12-31T05:20:46;94926.66;;;7.94;100.00
68889;BME280;55930;47.412;8.790;2022-12-31T05:24:12;94935.91;;;7.99;100.00
68889;BME280;55930;47.412;8.790;2022-12-31T05:27:32;94928.53;;;8.16;100.00
68889;BME280;55930;47.412;8.790;2022-12-31T05:30:53;94938.38;;;7.93;100.00
68889;BME280;55930;47.412;8.790;2022-12-31T05:34:14;94933.00;;;7.97;100.00
68889;BME280;55930;47.412;8.790;2022-12-31T05:37:34;94940.25;;;8.15;100.00
68889;BME280;55930;47.412;8.790;2022-12-31T05:40:58;94932.81;;;8.22;100.00
68889;BME280;55930;47.412;8.790;2022-12-31T05:44:19;94929.09;;;8.11;100.00
68889;BME280;55930;47.412;8.790;2022-12-31T05:47:40;94922.94;;;8.14;100.00
68889;BME280;55930;47.412;8.790;2022-12-31T05:51:15;94920.91;;;8.18;100.00
68889;BME280;55930;47.412;8.790;2022-12-31T05:54:36;94929.94;;;8.07;100.00
68889;BME280;55930;47.412;8.790;2022-12-31T05:57:56;94940.88;;;8.19;100.00
68889;BME280;55930;47.412;8.790;2022-12-31T06:01:17;94952.53;;;8.30;100.00
68889;BME280;55930;47.412;8.790;2022-12-31T06:04:37;94963.97;;;8.49;100.00
68889;BME280;55930;47.412;8.790;2022-12-31T06:07:57;94960.25;;;8.47;100.00
68889;BME280;55930;47.412;8.790;2022-12-31T06:11:21;94970.38;;;8.17;100.00
68889;BME280;55930;47.412;8.790;2022-12-31T06:14:42;94975.84;;;8.23;100.00
68889;BME280;55930;47.412;8.790;2022-12-31T06:18:03;94977.72;;;8.13;100.00
68889;BME280;55930;47.412;8.790;2022-12-31T06:21:26;94983.66;;;8.04;100.00
68889;BME280;55930;47.412;8.790;2022-12-31T06:24:46;94976.09;;;8.16;100.00
68889;BME280;55930;47.412;8.790;2022-12-31T06:28:07;94975.81;;;8.14;100.00
68889;BME280;55930;47.412;8.790;2022-12-31T06:31:28;94974.31;;;8.13;100.00
68889;BME280;55930;47.412;8.790;2022-12-31T06:34:48;94969.97;;;7.97;100.00
68889;BME280;55930;47.412;8.790;2022-12-31T06:38:09;94976.75;;;8.29;100.00
68889;BME280;55930;47.412;8.790;2022-12-31T06:41:30;94982.41;;;8.40;100.00
68889;BME280;55930;47.412;8.790;2022-12-31T06:44:50;94973.28;;;8.10;100.00
68889;BME280;55930;47.412;8.790;2022-12-31T06:48:13;94975.06;;;7.91;100.00
68889;BME280;55930;47.412;8.790;2022-12-31T06:51:34;94984.84;;;8.03;100.00
68889;BME280;55930;47.412;8.790;2022-12-31T06:54:54;94986.06;;;8.33;100.00
68889;BME280;55930;47.412;8.790;2022-12-31T06:58:16;94996.00;;;8.51;100.00
68889;BME280;55930;47.412;8.790;2022-12-31T07:05:35;94995.50;;;8.43;100.00
68889;BME280;55930;47.412;8.790;2022-12-31T07:09:09;94995.53;;;8.22;100.00
68889;BME280;55930;47.412;8.790;2022-12-31T07:23:11;95004.09;;;8.97;100.00
68889;BME280;55930;47.412;8.790;2022-12-31T07:34:00;95006.41;;;8.76;100.00
68889;BME280;55930;47.412;8.790;2022-12-31T07:44:36;95012.59;;;8.82;100.00
68889;BME280;55930;47.412;8.790;2022-12-31T07:48:00;95011.09;;;8.81;100.00
68889;BME280;55930;47.412;8.790;2022-12-31T07:51:21;95014.25;;;8.98;100.00
68889;BME280;55930;47.412;8.790;2022-12-31T07:54:42;95016.78;;;9.11;100.00
68889;BME280;55930;47.412;8.790;2022-12-31T07:58:18;95023.00;;;9.17;100.00
68889;BME280;55930;47.412;8.790;2022-12-31T08:01:46;95041.41;;;9.30;100.00
68889;BME280;55930;47.412;8.790;2022-12-31T08:05:48;95047.06;;;9.77;98.94
68889;BME280;55930;47.412;8.790;2022-12-31T08:12:42;95032.63;;;9.60;100.00
68889;BME280;55930;47.412;8.790;2022-12-31T08:16:09;95040.34;;;9.27;100.00
68889;BME280;55930;47.412;8.790;2022-12-31T08:19:31;95042.75;;;9.43;100.00
68889;BME280;55930;47.412;8.790;2022-12-31T08:23:00;95043.53;;;9.80;100.00
68889;BME280;55930;47.412;8.790;2022-12-31T08:26:35;95049.00;;;9.95;100.00
68889;BME280;55930;47.412;8.790;2022-12-31T08:30:09;95046.59;;;18.01;64.36
68889;BME280;55930;47.412;8.790;2022-12-31T08:33:41;95042.06;;;20.42;51.29
68889;BME280;55930;47.412;8.790;2022-12-31T08:40:48;95039.44;;;26.09;35.92
68889;BME280;55930;47.412;8.790;2022-12-31T08:51:23;95030.59;;;27.06;33.26
68889;BME280;55930;47.412;8.790;2022-12-31T08:54:44;95036.44;;;27.02;32.66
68889;BME280;55930;47.412;8.790;2022-12-31T09:06:17;95024.88;;;26.22;33.02
68889;BME280;55930;47.412;8.790;2022-12-31T09:09:41;95025.28;;;26.83;33.20
68889;BME280;55930;47.412;8.790;2022-12-31T09:13:24;95029.59;;;28.30;30.07
68889;BME280;55930;47.412;8.790;2022-12-31T09:20:33;95013.50;;;31.18;25.75
68889;BME280;55930;47.412;8.790;2022-12-31T09:23:54;95013.94;;;32.66;24.14
68889;BME280;55930;47.412;8.790;2022-12-31T09:27:24;95011.25;;;33.01;23.10
68889;BME280;55930;47.412;8.790;2022-12-31T09:30:57;95019.13;;;34.78;21.77
68889;BME280;55930;47.412;8.790;2022-12-31T09:34:56;95024.38;;;34.35;21.78
68889;BME280;55930;47.412;8.790;2022-12-31T09:49:24;95030.09;;;32.27;23.63
68889;BME280;55930;47.412;8.790;2022-12-31T09:53:08;95026.50;;;31.91;23.96
68889;BME280;55930;47.412;8.790;2022-12-31T10:07:42;95014.16;;;24.03;35.54
68889;BME280;55930;47.412;8.790;2022-12-31T10:11:09;95015.34;;;23.87;36.99
68889;BME280;55930;47.412;8.790;2022-12-31T10:22:15;95003.84;;;22.00;39.91
68889;BME280;55930;47.412;8.790;2022-12-31T10:29:44;94995.47;;;22.79;39.61
68889;BME280;55930;47.412;8.790;2022-12-31T10:33:35;95002.59;;;22.01;41.17
68889;BME280;55930;47.412;8.790;2022-12-31T10:37:19;95001.09;;;22.47;39.44
68889;BME280;55930;47.412;8.790;2022-12-31T10:45:17;94982.31;;;21.15;42.08
68889;BME280;55930;47.412;8.790;2022-12-31T10:57:10;94965.66;;;21.30;43.15
68889;BME280;55930;47.412;8.790;2022-12-31T11:00:54;94963.03;;;21.77;43.62
68889;BME280;55930;47.412;8.790;2022-12-31T11:04:35;94959.72;;;21.58;43.51
68889;BME280;55930;47.412;8.790;2022-12-31T11:08:25;94943.59;;;20.86;44.85
68889;BME280;55930;47.412;8.790;2022-12-31T11:19:00;94930.13;;;21.13;43.28
68889;BME280;55930;47.412;8.790;2022-12-31T11:29:52;94922.94;;;22.98;41.50
68889;BME280;55930;47.412;8.790;2022-12-31T11:40:38;94915.47;;;22.91;38.81
68889;BME280;55930;47.412;8.790;2022-12-31T11:44:17;94902.25;;;22.38;38.57
68889;BME280;55930;47.412;8.790;2022-12-31T11:55:27;94899.59;;;21.57;39.69
68889;BME280;55930;47.412;8.790;2022-12-31T11:58:56;94905.06;;;22.53;39.40
68889;BME280;55930;47.412;8.790;2022-12-31T12:02:24;94888.19;;;22.81;40.38
68889;BME280;55930;47.412;8.790;2022-12-31T12:05:48;94883.72;;;22.42;41.44
68889;BME280;55930;47.412;8.790;2022-12-31T12:09:26;94884.44;;;21.88;41.46
68889;BME280;55930;47.412;8.790;2022-12-31T12:12:48;94881.34;;;20.97;44.62
68889;BME280;55930;47.412;8.790;2022-12-31T12:16:09;94873.06;;;20.82;45.79
68889;BME280;55930;47.412;8.790;2022-12-31T12:19:31;94873.75;;;21.09;43.24
68889;BME280;55930;47.412;8.790;2022-12-31T12:22:56;94869.09;;;20.70;44.13
68889;BME280;55930;47.412;8.790;2022-12-31T12:26:39;94870.19;;;19.66;45.70
68889;BME280;55930;47.412;8.790;2022-12-31T12:30:25;94873.66;;;19.98;47.15
68889;BME280;55930;47.412;8.790;2022-12-31T12:33:46;94875.31;;;19.69;47.53
68889;BME280;55930;47.412;8.790;2022-12-31T12:37:28;94873.91;;;20.13;44.62
68889;BME280;55930;47.412;8.790;2022-12-31T12:44:14;94871.78;;;19.37;46.22
68889;BME280;55930;47.412;8.790;2022-12-31T12:47:35;94871.66;;;19.67;46.70
68889;BME280;55930;47.412;8.790;2022-12-31T12:50:56;94868.19;;;19.53;47.60
68889;BME280;55930;47.412;8.790;2022-12-31T12:58:17;94860.22;;;18.50;54.40
68889;BME280;55930;47.412;8.790;2022-12-31T13:02:05;94850.63;;;18.55;53.59
68889;BME280;55930;47.412;8.790;2022-12-31T13:27:38;94847.13;;;16.21;71.64
68889;BME280;55930;47.412;8.790;2022-12-31T13:31:03;94852.25;;;15.91;76.00
68889;BME280;55930;47.412;8.790;2022-12-31T13:34:32;94848.84;;;15.80;76.61
68889;BME280;55930;47.412;8.790;2022-12-31T13:38:01;94841.28;;;15.61;79.53
68889;BME280;55930;47.412;8.790;2022-12-31T13:41:28;94844.34;;;15.43;80.93
68889;BME280;55930;47.412;8.790;2022-12-31T13:44:55;94846.63;;;15.56;79.00
68889;BME280;55930;47.412;8.790;2022-12-31T13:48:23;94849.44;;;15.41;78.98
68889;BME280;55930;47.412;8.790;2022-12-31T13:51:50;94850.44;;;15.38;79.07
68889;BME280;55930;47.412;8.790;2022-12-31T13:55:20;94855.97;;;15.23;80.36
68889;BME280;55930;47.412;8.790;2022-12-31T13:58:49;94846.38;;;14.89;82.70
68889;BME280;55930;47.412;8.790;2022-12-31T14:02:35;94859.41;;;14.76;83.33
68889;BME280;55930;47.412;8.790;2022-12-31T14:06:26;94844.06;;;14.65;84.16
68889;BME280;55930;47.412;8.790;2022-12-31T14:09:43;94858.03;;;14.49;85.58
68889;BME280;55930;47.412;8.790;2022-12-31T14:16:55;94862.47;;;13.95;88.50
68889;BME280;55930;47.412;8.790;2022-12-31T14:27:53;94866.16;;;13.25;92.56
68889;BME280;55930;47.412;8.790;2022-12-31T14:34:57;94869.56;;;12.71;96.59
68889;BME280;55930;47.412;8.790;2022-12-31T14:41:51;94876.41;;;12.57;98.02
68889;BME280;55930;47.412;8.790;2022-12-31T14:49:32;94884.44;;;12.42;97.23
68889;BME280;55930;47.412;8.790;2022-12-31T14:52:29;94881.44;;;12.05;99.83
68889;BME280;55930;47.412;8.790;2022-12-31T14:56:36;94897.50;;;11.96;100.00
68889;BME280;55930;47.412;8.790;2022-12-31T15:00:19;94888.97;;;11.77;100.00
68889;BME280;55930;47.412;8.790;2022-12-31T15:03:41;94900.53;;;11.89;100.00
68889;BME280;55930;47.412;8.790;2022-12-31T15:07:10;94906.69;;;11.57;100.00
68889;BME280;55930;47.412;8.790;2022-12-31T15:10:56;94909.16;;;11.60;100.00
68889;BME280;55930;47.412;8.790;2022-12-31T15:28:39;94907.59;;;10.67;100.00
68889;BME280;55930;47.412;8.790;2022-12-31T15:32:02;94908.38;;;10.50;100.00
68889;BME280;55930;47.412;8.790;2022-12-31T15:35:30;94915.53;;;10.34;100.00
68889;BME280;55930;47.412;8.790;2022-12-31T15:39:06;94929.53;;;10.17;100.00
68889;BME280;55930;47.412;8.790;2022-12-31T15:42:39;94925.88;;;10.23;100.00
68889;BME280;55930;47.412;8.790;2022-12-31T15:46:06;94921.59;;;10.08;100.00
68889;BME280;55930;47.412;8.790;2022-12-31T15:49:36;94922.94;;;10.03;100.00
68889;BME280;55930;47.412;8.790;2022-12-31T15:53:01;94924.88;;;9.93;100.00
68889;BME280;55930;47.412;8.790;2022-12-31T15:56:40;94932.81;;;9.93;100.00
68889;BME280;55930;47.412;8.790;2022-12-31T16:00:28;94944.47;;;9.78;100.00
68889;BME280;55930;47.412;8.790;2022-12-31T16:03:50;94948.47;;;9.73;100.00
68889;BME280;55930;47.412;8.790;2022-12-31T16:07:14;94945.50;;;9.80;100.00
68889;BME280;55930;47.412;8.790;2022-12-31T16:10:34;94955.66;;;9.91;100.00
68889;BME280;55930;47.412;8.790;2022-12-31T16:13:56;94957.97;;;9.98;100.00
68889;BME280;55930;47.412;8.790;2022-12-31T16:20:49;94976.13;;;9.81;100.00
68889;BME280;55930;47.412;8.790;2022-12-31T16:24:27;94971.72;;;9.78;100.00
68889;BME280;55930;47.412;8.790;2022-12-31T16:27:49;94969.22;;;9.56;100.00
68889;BME280;55930;47.412;8.790;2022-12-31T16:31:15;94979.50;;;9.64;100.00
68889;BME280;55930;47.412;8.790;2022-12-31T16:34:36;94979.81;;;9.66;100.00
68889;BME280;55930;47.412;8.790;2022-12-31T16:38:15;94988.94;;;9.55;100.00
68889;BME280;55930;47.412;8.790;2022-12-31T16:41:42;94982.00;;;9.49;100.00
68889;BME280;55930;47.412;8.790;2022-12-31T16:45:26;94981.25;;;9.39;100.00
68889;BME280;55930;47.412;8.790;2022-12-31T16:49:15;94984.78;;;9.36;100.00
68889;BME280;55930;47.412;8.790;2022-12-31T16:52:41;94991.38;;;9.23;100.00
68889;BME280;55930;47.412;8.790;2022-12-31T16:56:05;94981.97;;;9.21;100.00
68889;BME280;55930;47.412;8.790;2022-12-31T17:03:07;94985.53;;;9.55;100.00
68889;BME280;55930;47.412;8.790;2022-12-31T17:06:30;94988.03;;;9.68;99.17
68889;BME280;55930;47.412;8.790;2022-12-31T17:13:30;94984.50;;;9.62;100.00
68889;BME280;55930;47.412;8.790;2022-12-31T17:20:25;94988.63;;;9.53;100.00
68889;BME280;55930;47.412;8.790;2022-12-31T17:23:53;94980.41;;;9.70;97.79
68889;BME280;55930;47.412;8.790;2022-12-31T17:27:15;94975.38;;;9.44;100.00
68889;BME280;55930;47.412;8.790;2022-12-31T17:30:38;94971.09;;;9.38;100.00
68889;BME280;55930;47.412;8.790;2022-12-31T17:37:34;94971.25;;;9.52;99.37
68889;BME280;55930;47.412;8.790;2022-12-31T17:44:27;94980.69;;;9.72;95.96
68889;BME280;55930;47.412;8.790;2022-12-31T17:47:49;94980.38;;;9.42;99.06
68889;BME280;55930;47.412;8.790;2022-12-31T17:51:11;94981.28;;;9.76;93.79
68889;BME280;55930;47.412;8.790;2022-12-31T17:54:31;94982.31;;;9.60;96.56
68889;BME280;55930;47.412;8.790;2022-12-31T17:57:54;94982.44;;;9.47;97.46
68889;BME280;55930;47.412;8.790;2022-12-31T18:01:18;94983.91;;;9.76;93.96
68889;BME280;55930;47.412;8.790;2022-12-31T18:04:39;94980.66;;;9.35;97.95
68889;BME280;55930;47.412;8.790;2022-12-31T18:07:59;94988.34;;;9.88;91.60
68889;BME280;55930;47.412;8.790;2022-12-31T18:11:21;94981.13;;;9.61;95.97
68889;BME280;55930;47.412;8.790;2022-12-31T18:14:44;94988.03;;;9.58;95.18
68889;BME280;55930;47.412;8.790;2022-12-31T18:18:19;94993.78;;;9.93;91.44
68889;BME280;55930;47.412;8.790;2022-12-31T18:21:41;94996.25;;;9.42;97.48
68889;BME280;55930;47.412;8.790;2022-12-31T18:25:02;94989.78;;;9.43;97.11
68889;BME280;55930;47.412;8.790;2022-12-31T18:28:23;94985.91;;;9.08;100.00
68889;BME280;55930;47.412;8.790;2022-12-31T18:31:45;94987.97;;;9.13;100.00
68889;BME280;55930;47.412;8.790;2022-12-31T18:35:12;95001.94;;;9.13;99.95
68889;BME280;55930;47.412;8.790;2022-12-31T18:38:34;95004.47;;;9.17;99.02
68889;BME280;55930;47.412;8.790;2022-12-31T18:41:54;95003.00;;;9.34;99.23
68889;BME280;55930;47.412;8.790;2022-12-31T18:45:16;95005.19;;;9.08;100.00
68889;BME280;55930;47.412;8.790;2022-12-31T18:48:41;95007.53;;;9.15;100.00
68889;BME280;55930;47.412;8.790;2022-12-31T18:52:01;95007.44;;;9.37;96.47
68889;BME280;55930;47.412;8.790;2022-12-31T18:55:33;95015.13;;;9.53;95.25
68889;BME280;55930;47.412;8.790;2022-12-31T18:58:55;95004.19;;;9.42;95.69
68889;BME280;55930;47.412;8.790;2022-12-31T19:02:19;95006.22;;;9.20;99.46
68889;BME280;55930;47.412;8.790;2022-12-31T19:05:40;95006.59;;;8.91;100.00
68889;BME280;55930;47.412;8.790;2022-12-31T19:09:00;95001.00;;;8.89;100.00
68889;BME280;55930;47.412;8.790;2022-12-31T19:12:20;95012.81;;;8.66;100.00
68889;BME280;55930;47.412;8.790;2022-12-31T19:15:49;95005.91;;;9.09;100.00
68889;BME280;55930;47.412;8.790;2022-12-31T19:19:10;95000.56;;;8.91;100.00
68889;BME280;55930;47.412;8.790;2022-12-31T19:22:31;95009.41;;;8.97;100.00
68889;BME280;55930;47.412;8.790;2022-12-31T19:25:51;95006.94;;;9.11;100.00
68889;BME280;55930;47.412;8.790;2022-12-31T19:29:25;94999.09;;;8.90;100.00
68889;BME280;55930;47.412;8.790;2022-12-31T19:32:50;94991.06;;;8.71;100.00
68889;BME280;55930;47.412;8.790;2022-12-31T19:36:15;94999.31;;;8.73;100.00
68889;BME280;55930;47.412;8.790;2022-12-31T19:39:39;95005.41;;;8.92;100.00
68889;BME280;55930;47.412;8.790;2022-12-31T19:42:59;95000.66;;;9.27;100.00
68889;BME280;55930;47.412;8.790;2022-12-31T19:46:20;95002.69;;;8.74;100.00
68889;BME280;55930;47.412;8.790;2022-12-31T19:49:41;95012.53;;;8.73;100.00
68889;BME280;55930;47.412;8.790;2022-12-31T19:53:01;95004.22;;;8.84;100.00
68889;BME280;55930;47.412;8.790;2022-12-31T19:56:21;95005.88;;;9.00;100.00
68889;BME280;55930;47.412;8.790;2022-12-31T19:59:42;95009.19;;;8.82;100.00
68889;BME280;55930;47.412;8.790;2022-12-31T20:03:02;95011.53;;;8.49;100.00
68889;BME280;55930;47.412;8.790;2022-12-31T20:06:23;95016.03;;;8.61;100.00
68889;BME280;55930;47.412;8.790;2022-12-31T20:09:43;95015.63;;;8.41;100.00
68889;BME280;55930;47.412;8.790;2022-12-31T20:13:03;95005.63;;;8.23;100.00
68889;BME280;55930;47.412;8.790;2022-12-31T20:16:25;95009.75;;;8.24;100.00
68889;BME280;55930;47.412;8.790;2022-12-31T20:19:45;95013.16;;;8.25;100.00
68889;BME280;55930;47.412;8.790;2022-12-31T20:23:06;94995.47;;;8.13;100.00
68889;BME280;55930;47.412;8.790;2022-12-31T20:26:26;94996.19;;;8.13;100.00
68889;BME280;55930;47.412;8.790;2022-12-31T20:29:46;94992.09;;;8.34;100.00
68889;BME280;55930;47.412;8.790;2022-12-31T20:33:07;94992.59;;;8.51;100.00
68889;BME280;55930;47.412;8.790;2022-12-31T20:36:29;94981.97;;;8.72;97.36
68889;BME280;55930;47.412;8.790;2022-12-31T20:39:50;94981.19;;;9.12;93.91
68889;BME280;55930;47.412;8.790;2022-12-31T20:43:10;94969.63;;;9.28;93.14
68889;BME280;55930;47.412;8.790;2022-12-31T20:46:31;94966.47;;;8.93;94.89
68889;BME280;55930;47.412;8.790;2022-12-31T20:49:51;94974.50;;;8.80;95.54
68889;BME280;55930;47.412;8.790;2022-12-31T20:53:12;94977.13;;;9.29;92.12
68889;BME280;55930;47.412;8.790;2022-12-31T20:56:35;94979.16;;;9.07;93.45
68889;BME280;55930;47.412;8.790;2022-12-31T20:59:56;94982.16;;;9.45;90.20
68889;BME280;55930;47.412;8.790;2022-12-31T21:03:17;94983.63;;;9.65;87.48
68889;BME280;55930;47.412;8.790;2022-12-31T21:06:38;94988.44;;;8.71;98.09
68889;BME280;55930;47.412;8.790;2022-12-31T21:09:58;94999.91;;;8.68;96.96
68889;BME280;55930;47.412;8.790;2022-12-31T21:13:18;95001.34;;;9.18;91.22
68889;BME280;55930;47.412;8.790;2022-12-31T21:16:42;94998.72;;;9.18;93.03
68889;BME280;55930;47.412;8.790;2022-12-31T21:20:04;95001.50;;;8.66;98.47
68889;BME280;55930;47.412;8.790;2022-12-31T21:23:24;94990.34;;;8.40;100.00
68889;BME280;55930;47.412;8.790;2022-12-31T21:26:45;94993.41;;;8.38;100.00
68889;BME280;55930;47.412;8.790;2022-12-31T21:30:05;94996.69;;;8.42;99.92
68889;BME280;55930;47.412;8.790;2022-12-31T21:33:26;95012.81;;;8.23;100.00
68889;BME280;55930;47.412;8.790;2022-12-31T21:36:49;95014.22;;;8.05;100.00
68889;BME280;55930;47.412;8.790;2022-12-31T21:40:10;95027.09;;;8.03;100.00
68889;BME280;55930;47.412;8.790;2022-12-31T21:43:30;95030.72;;;7.97;100.00
68889;BME280;55930;47.412;8.790;2022-12-31T21:46:59;95041.16;;;7.79;100.00
68889;BME280;55930;47.412;8.790;2022-12-31T21:50:40;95052.88;;;7.78;100.00
68889;BME280;55930;47.412;8.790;2022-12-31T21:54:01;95048.97;;;7.69;100.00
68889;BME280;55930;47.412;8.790;2022-12-31T21:57:21;95054.44;;;7.75;100.00
68889;BME280;55930;47.412;8.790;2022-12-31T22:00:42;95057.31;;;7.81;100.00
68889;BME280;55930;47.412;8.790;2022-12-31T22:04:21;95069.13;;;7.76;100.00
68889;BME280;55930;47.412;8.790;2022-12-31T22:07:41;95060.56;;;7.85;100.00